CheckWX is a tool to help pilots better visualize weather data.  It is not intended as a substitute for an official pre-flight weather briefing.

07:44:52 UTC

EBCV METAR
Chièvres Air Base Airport
Chièvres, Belgium
Current

20 mins ago

EBCV 210725Z AUTO 33008KT 9000 BKN011/// 11/09 Q1016 GRN
Observed
May-21 @ 07:25 UTC
Wind
  • 330° at 8 KTS
Visibility
8,996 meters
Flight Rules
MVFR
Cloud Levels
  • Broken at 1,100' AGL
Temperature
11°C / 52°F
Dewpoint
C / 48°F
Humidity
88%
Altimeter
30" Hg
Pressure
1015.92 hPa
Previous

50 mins ago

EBCV 210655Z AUTO 33009KT 9000 BKN011/// 10/09 Q1016 GRN
Observed
May-21 @ 06:55 UTC
Wind
  • 330° at 9 KTS
Visibility
8,996 meters
Flight Rules
MVFR
Cloud Levels
  • Broken at 1,100' AGL
Temperature
10°C / 50°F
Dewpoint
C / 48°F
Humidity
94%
Altimeter
30" Hg
Pressure
1015.92 hPa
Previous

1 hour ago

EBCV 210625Z AUTO 33007KT 9000 BKN010/// 10/09 Q1015 GRN
Observed
May-21 @ 06:25 UTC
Wind
  • 330° at 7 KTS
Visibility
8,996 meters
Flight Rules
MVFR
Cloud Levels
  • Broken at 1,000' AGL
Temperature
10°C / 50°F
Dewpoint
C / 48°F
Humidity
94%
Altimeter
29.97" Hg
Pressure
1014.92 hPa